FAJB

Johannesburg City Airport

Johannesburg, South Africa
METAR FAJB 220400Z AUTO 00000KT //// // ////// 13/06 Q1023
Observed Flight Rules
Jan-22 @ 04:00 UTC (60 minutes ago)
Temperatures Readings
Current 13°C / 55°F
Dewpoint 6°C / 43°F
Humidity 63%
Altimeter 30.21" Hg
Pressure 1022.92 hPa
Elevation 1626
METAR FAJB 220400Z AUTO 00000KT //// // ////// 13/06 Q1023
Observed Flight Rules
Jan-22 @ 04:00 UTC
(60 minutes ago)
Temperature Dewpoint
13°C / 55°F 6°C / 43°F
Humidity Altimeter Pressure
63% 30.21" Hg 1022.92 hPa